createdAt,value
2019-02-27T00:02:22.776Z,99.90
2019-02-27T00:04:51.553Z,99.90
2019-02-27T00:07:23.322Z,99.90
2019-02-27T00:09:54.285Z,99.90
2019-02-27T00:12:25.421Z,99.90
2019-02-27T00:14:55.756Z,99.90
2019-02-27T00:17:26.147Z,99.90
2019-02-27T00:19:56.518Z,99.90
2019-02-27T00:22:26.725Z,99.90
2019-02-27T00:24:58.377Z,99.90
2019-02-27T00:27:29.027Z,99.90
2019-02-27T00:30:04.414Z,99.90
2019-02-27T00:32:32.603Z,99.90
2019-02-27T00:35:06.534Z,99.90
2019-02-27T00:37:36.310Z,99.90
2019-02-27T00:40:07.517Z,99.90
2019-02-27T00:42:37.223Z,99.90
2019-02-27T00:45:08.050Z,99.90
2019-02-27T00:47:38.158Z,99.90
2019-02-27T00:50:08.554Z,99.90
2019-02-27T00:52:38.169Z,99.90
2019-02-27T00:55:08.933Z,99.90
2019-02-27T00:57:39.146Z,99.90
2019-02-27T01:00:13.629Z,99.90
2019-02-27T01:02:44.942Z,99.90
2019-02-27T01:05:16.158Z,99.90
2019-02-27T01:07:45.975Z,99.90
2019-02-27T01:10:18.582Z,99.90
2019-02-27T01:12:51.943Z,99.80
2019-02-27T01:15:25.287Z,99.50
2019-02-27T01:17:58.646Z,99.50
2019-02-27T01:20:32.034Z,99.90
2019-02-27T01:23:05.427Z,99.70
2019-02-27T01:25:38.726Z,99.60
2019-02-27T01:28:12.059Z,99.50
2019-02-27T01:30:45.415Z,99.60
2019-02-27T01:33:18.809Z,99.40
2019-02-27T01:35:52.139Z,99.10
2019-02-27T01:38:20.974Z,99.10
2019-02-27T01:40:51.625Z,99.10
2019-02-27T01:43:23.207Z,99.10
2019-02-27T01:45:54.298Z,99.20
2019-02-27T01:48:26.315Z,99.20
2019-02-27T01:50:57.921Z,99.40
2019-02-27T01:53:28.503Z,99.50
2019-02-27T01:55:58.030Z,99.90
2019-02-27T01:58:27.930Z,99.60
2019-02-27T02:00:58.943Z,99.90
2019-02-27T02:03:29.198Z,99.90
2019-02-27T02:06:00.948Z,99.90
2019-02-27T02:08:32.290Z,99.90
2019-02-27T02:11:03.211Z,99.90
2019-02-27T02:14:14.326Z,99.90
2019-02-27T02:17:29.076Z,99.90
2019-02-27T02:20:31.942Z,99.90
2019-02-27T02:23:17.642Z,99.90
2019-02-27T02:26:23.488Z,99.90
2019-02-27T02:29:20.251Z,99.90
2019-02-27T02:32:16.734Z,99.90
2019-02-27T02:35:27.632Z,99.90
2019-02-27T02:38:28.070Z,99.90
2019-02-27T02:41:46.694Z,99.90
2019-02-27T02:44:35.116Z,99.90
2019-02-27T02:47:35.939Z,99.90
2019-02-27T02:50:25.515Z,99.90
2019-02-27T02:53:14.596Z,99.90
2019-02-27T02:56:24.830Z,99.90
2019-02-27T02:59:30.160Z,99.90
2019-02-27T03:02:29.777Z,99.90
2019-02-27T03:05:25.415Z,99.90
2019-02-27T03:08:20.076Z,99.90
2019-02-27T03:11:27.258Z,99.90
2019-02-27T03:14:35.410Z,99.90
2019-02-27T03:17:36.256Z,99.90
2019-02-27T03:20:51.972Z,99.90
2019-02-27T03:23:55.652Z,99.90
2019-02-27T03:27:09.919Z,99.90
2019-02-27T03:30:13.994Z,99.90
2019-02-27T03:32:57.165Z,99.90
2019-02-27T03:36:04.569Z,99.90
2019-02-27T03:39:20.907Z,99.90
2019-02-27T03:42:17.675Z,99.90
2019-02-27T03:45:18.132Z,99.90
2019-02-27T03:48:17.440Z,99.90
2019-02-27T03:51:30.564Z,99.90
2019-02-27T03:54:29.116Z,99.90
2019-02-27T03:57:27.871Z,99.90
2019-02-27T04:00:11.359Z,99.90
2019-02-27T04:02:53.056Z,99.90
2019-02-27T04:06:01.244Z,99.90
2019-02-27T04:09:02.403Z,99.90
2019-02-27T04:11:33.675Z,99.90
2019-02-27T04:14:05.658Z,99.90
2019-02-27T04:16:38.173Z,99.90
2019-02-27T04:19:10.103Z,99.90
2019-02-27T04:21:43.051Z,99.90
2019-02-27T04:24:14.098Z,99.90
2019-02-27T04:26:46.077Z,99.90
2019-02-27T04:29:19.613Z,99.90
2019-02-27T04:31:53.005Z,99.90
2019-02-27T04:34:24.495Z,99.90
2019-02-27T04:36:54.746Z,99.90
2019-02-27T04:39:25.067Z,99.90
2019-02-27T04:41:55.518Z,99.90
2019-02-27T04:44:25.613Z,99.90
2019-02-27T04:46:57.766Z,99.90
2019-02-27T04:49:29.339Z,99.90
2019-02-27T04:51:59.771Z,99.90
2019-02-27T04:54:29.883Z,99.90
2019-02-27T04:57:00.023Z,99.90
2019-02-27T04:59:30.222Z,99.90
2019-02-27T05:02:03.128Z,99.90
2019-02-27T05:04:35.138Z,99.90
2019-02-27T05:07:07.140Z,99.90
2019-02-27T05:09:37.563Z,99.90
2019-02-27T05:12:09.823Z,99.90
2019-02-27T05:14:42.975Z,99.90
2019-02-27T05:17:14.471Z,99.90
2019-02-27T05:19:44.934Z,99.90
2019-02-27T05:22:17.067Z,99.90
2019-02-27T05:24:48.606Z,99.90
2019-02-27T05:27:20.781Z,99.90
2019-02-27T05:29:52.652Z,99.90
2019-02-27T05:32:25.331Z,99.90
2019-02-27T05:34:57.799Z,99.90
2019-02-27T05:37:29.431Z,99.90
2019-02-27T05:39:59.790Z,99.90
2019-02-27T05:42:29.942Z,99.90
2019-02-27T05:45:00.228Z,99.90
2019-02-27T05:47:33.098Z,99.90
2019-02-27T05:50:03.958Z,99.90
2019-02-27T05:52:35.885Z,99.90
2019-02-27T05:55:09.922Z,99.90
2019-02-27T05:57:41.180Z,99.90
2019-02-27T06:00:15.000Z,99.90
2019-02-27T06:02:46.847Z,99.90
2019-02-27T06:05:19.720Z,99.90
2019-02-27T06:07:53.012Z,99.90
2019-02-27T06:10:24.872Z,99.90
2019-02-27T06:12:55.099Z,99.90
2019-02-27T06:15:26.009Z,99.90
2019-02-27T06:17:59.163Z,99.90
2019-02-27T06:20:30.994Z,99.90
2019-02-27T06:23:04.995Z,99.90
2019-02-27T06:25:37.370Z,99.90
2019-02-27T06:28:08.781Z,99.90
2019-02-27T06:30:41.091Z,99.90
2019-02-27T06:33:14.590Z,99.90
2019-02-27T06:35:45.926Z,99.90
2019-02-27T06:38:16.491Z,99.90
2019-02-27T06:40:46.498Z,99.90
2019-02-27T06:43:17.032Z,99.90
2019-02-27T06:45:48.877Z,99.90
2019-02-27T06:48:20.554Z,99.90
2019-02-27T06:50:50.558Z,99.90
2019-02-27T06:53:20.582Z,99.90
2019-02-27T06:55:51.088Z,99.90
2019-02-27T06:58:21.430Z,99.90
2019-02-27T07:00:51.872Z,99.90
2019-02-27T07:03:22.190Z,99.90
2019-02-27T07:05:55.349Z,99.90
2019-02-27T07:08:28.398Z,99.90
2019-02-27T07:11:10.371Z,99.90
2019-02-27T07:13:31.937Z,99.90
2019-02-27T07:16:04.890Z,99.90
2019-02-27T07:18:36.471Z,99.90
2019-02-27T07:21:08.334Z,99.90
2019-02-27T07:23:39.714Z,99.90
2019-02-27T07:26:13.219Z,99.90
2019-02-27T07:28:43.598Z,99.90
2019-02-27T07:31:18.333Z,99.90
2019-02-27T07:33:46.990Z,99.90
2019-02-27T07:36:16.709Z,99.90
2019-02-27T07:38:46.916Z,99.90
2019-02-27T07:41:20.966Z,99.90
2019-02-27T07:43:50.944Z,99.90
2019-02-27T07:46:22.422Z,99.90
2019-02-27T07:48:56.278Z,99.90
2019-02-27T07:51:24.363Z,99.60
2019-02-27T07:53:54.581Z,99.20
2019-02-27T07:56:24.940Z,98.30
2019-02-27T07:58:55.228Z,96.80
2019-02-27T08:01:25.457Z,96.20
2019-02-27T08:03:55.624Z,94.80
2019-02-27T08:06:25.910Z,94.30
2019-02-27T08:08:58.576Z,91.90
2019-02-27T08:11:31.911Z,92.40
2019-02-27T08:14:03.250Z,91.60
2019-02-27T08:16:36.928Z,90.30
2019-02-27T08:19:08.954Z,90.30
2019-02-27T08:21:38.878Z,86.40
2019-02-27T08:24:09.230Z,85.60
2019-02-27T08:26:39.981Z,87.70
2019-02-27T08:29:10.601Z,80.30
2019-02-27T08:31:43.395Z,77.20
2019-02-27T08:34:14.106Z,80.90
2019-02-27T08:36:44.475Z,75.30
2019-02-27T08:39:15.166Z,74.50
2019-02-27T08:41:45.106Z,74.60
2019-02-27T08:44:15.046Z,67.10
2019-02-27T08:46:45.339Z,67.60
2019-02-27T08:49:15.656Z,63.30
2019-02-27T08:51:45.895Z,65.20
2019-02-27T08:54:16.139Z,64.30
2019-02-27T08:56:47.155Z,61.60
2019-02-27T08:59:18.897Z,58.80
2019-02-27T09:01:49.552Z,62.20
2019-02-27T09:04:22.278Z,55.40
2019-02-27T09:06:52.958Z,52.40
2019-02-27T09:09:24.195Z,53.20
2019-02-27T09:11:53.891Z,53.90
2019-02-27T09:14:24.301Z,52.20
2019-02-27T09:16:54.353Z,49.00
2019-02-27T09:19:24.678Z,50.50
2019-02-27T09:21:55.011Z,49.50
2019-02-27T09:24:25.640Z,50.10
2019-02-27T09:26:55.430Z,49.10
2019-02-27T09:29:25.683Z,49.10
2019-02-27T09:31:55.905Z,47.20
2019-02-27T09:34:26.890Z,48.10
2019-02-27T09:36:59.646Z,45.60
2019-02-27T09:39:32.058Z,46.70
2019-02-27T09:42:03.866Z,44.90
2019-02-27T09:44:36.402Z,43.60
2019-02-27T09:47:05.790Z,45.00
2019-02-27T09:49:38.049Z,43.60
2019-02-27T09:52:07.930Z,44.90
2019-02-27T09:54:38.285Z,43.60
2019-02-27T09:57:08.386Z,42.00
2019-02-27T09:59:39.979Z,41.90
2019-02-27T10:02:12.490Z,41.20
2019-02-27T10:04:43.809Z,40.60
2019-02-27T10:07:17.069Z,41.00
2019-02-27T10:09:48.094Z,40.50
2019-02-27T10:12:18.598Z,38.60
2019-02-27T10:14:50.239Z,39.00
2019-02-27T10:17:22.377Z,37.00
2019-02-27T10:19:52.790Z,38.40
2019-02-27T10:22:24.594Z,37.00
2019-02-27T10:24:55.337Z,34.50
2019-02-27T10:27:28.847Z,34.30
2019-02-27T10:29:57.358Z,35.60
2019-02-27T10:32:27.186Z,34.30
2019-02-27T10:34:58.382Z,33.40
2019-02-27T10:37:29.753Z,33.20
2019-02-27T10:40:00.687Z,33.90
2019-02-27T10:42:31.106Z,33.20
2019-02-27T10:45:01.678Z,33.90
2019-02-27T10:47:33.678Z,33.80
2019-02-27T10:50:04.218Z,33.40
2019-02-27T10:52:34.854Z,33.20
2019-02-27T10:55:05.673Z,31.00
2019-02-27T10:57:38.389Z,32.40
2019-02-27T11:00:26.001Z,30.70
2019-02-27T11:02:57.377Z,28.00
2019-02-27T11:05:29.270Z,27.00
2019-02-27T11:07:59.653Z,28.20
2019-02-27T11:10:29.882Z,27.90
2019-02-27T11:12:59.891Z,26.30
2019-02-27T11:15:30.098Z,27.30
2019-02-27T11:18:04.401Z,26.70
2019-02-27T11:20:33.223Z,27.10
2019-02-27T11:23:06.955Z,26.00
2019-02-27T11:25:36.849Z,26.40
2019-02-27T11:28:07.368Z,26.20
2019-02-27T11:30:38.006Z,26.20
2019-02-27T11:33:08.330Z,25.60
2019-02-27T11:35:38.157Z,24.20
2019-02-27T11:38:08.634Z,23.40
2019-02-27T11:40:41.547Z,23.90
2019-02-27T11:43:11.056Z,25.10
2019-02-27T11:45:42.326Z,25.40
2019-02-27T11:48:12.616Z,25.70
2019-02-27T11:50:42.825Z,24.10
2019-02-27T11:53:13.480Z,23.90
2019-02-27T11:55:43.374Z,23.40
2019-02-27T11:58:13.717Z,22.50
2019-02-27T12:00:46.514Z,24.10
2019-02-27T12:03:35.146Z,22.60
2019-02-27T12:06:07.763Z,23.10
2019-02-27T12:08:37.356Z,23.50
2019-02-27T12:11:06.864Z,23.50
2019-02-27T12:13:37.153Z,23.00
2019-02-27T12:16:08.197Z,23.70
2019-02-27T12:18:37.715Z,23.20
2019-02-27T12:21:08.351Z,23.40
2019-02-27T12:23:38.183Z,22.90
2019-02-27T12:26:08.506Z,24.70
2019-02-27T12:28:39.302Z,24.30
2019-02-27T12:31:14.120Z,24.40
2019-02-27T12:33:45.206Z,25.90
2019-02-27T12:36:16.050Z,24.70
2019-02-27T12:38:48.295Z,24.10
2019-02-27T12:41:19.158Z,24.00
2019-02-27T12:43:52.747Z,24.10
2019-02-27T12:46:23.359Z,22.70
2019-02-27T12:48:53.361Z,22.70
2019-02-27T12:51:23.841Z,23.40
2019-02-27T12:53:54.592Z,24.00
2019-02-27T12:56:26.313Z,23.50
2019-02-27T12:58:58.620Z,23.20
2019-02-27T13:01:28.362Z,24.10
2019-02-27T13:03:58.185Z,23.70
2019-02-27T13:06:28.338Z,24.40
2019-02-27T13:08:58.540Z,25.00
2019-02-27T13:11:28.774Z,25.40
2019-02-27T13:13:59.732Z,23.80
2019-02-27T13:16:31.878Z,23.40
2019-02-27T13:19:06.360Z,24.60
2019-02-27T13:21:33.915Z,23.90
2019-02-27T13:24:03.906Z,24.90
2019-02-27T13:26:34.652Z,24.80
2019-02-27T13:29:06.494Z,24.30
2019-02-27T13:31:37.020Z,24.30
2019-02-27T13:34:07.341Z,24.30
2019-02-27T13:36:37.574Z,24.90
2019-02-27T13:39:09.975Z,24.90
2019-02-27T13:41:45.545Z,25.30
2019-02-27T13:44:16.914Z,25.70
2019-02-27T13:46:50.260Z,25.60
2019-02-27T13:49:20.432Z,25.50
2019-02-27T13:51:51.573Z,24.60
2019-02-27T13:54:22.046Z,24.00
2019-02-27T13:56:52.170Z,23.90
2019-02-27T13:59:22.270Z,24.50
2019-02-27T14:01:52.578Z,23.50
2019-02-27T14:04:23.247Z,24.50
2019-02-27T14:06:53.059Z,25.00
2019-02-27T14:09:23.278Z,25.30
2019-02-27T14:11:58.545Z,24.50
2019-02-27T14:14:26.626Z,24.20
2019-02-27T14:16:57.190Z,24.20
2019-02-27T14:19:27.394Z,24.60
2019-02-27T14:21:57.818Z,25.30
2019-02-27T14:24:27.975Z,24.80
2019-02-27T14:26:58.160Z,24.80
2019-02-27T14:29:29.786Z,26.40
2019-02-27T14:32:00.818Z,25.30
2019-02-27T14:34:31.514Z,25.80
2019-02-27T14:37:01.947Z,25.70
2019-02-27T14:39:32.582Z,24.80
2019-02-27T14:42:02.806Z,25.40
2019-02-27T14:44:33.319Z,25.20
2019-02-27T14:47:03.034Z,26.10
2019-02-27T14:49:33.485Z,26.00
2019-02-27T14:52:03.907Z,25.60
2019-02-27T14:54:33.623Z,26.00
2019-02-27T14:57:04.121Z,25.40
2019-02-27T14:59:34.518Z,25.00
2019-02-27T15:02:05.303Z,25.00
2019-02-27T15:04:34.943Z,25.40
2019-02-27T15:07:05.101Z,26.00
2019-02-27T15:09:36.406Z,25.90
2019-02-27T15:12:07.811Z,26.00
2019-02-27T15:14:38.653Z,26.70
2019-02-27T15:17:09.298Z,27.00
2019-02-27T15:19:39.542Z,26.50
2019-02-27T15:22:09.638Z,27.70
2019-02-27T15:24:39.646Z,27.80
2019-02-27T15:27:10.172Z,27.90
2019-02-27T15:29:42.642Z,28.50
2019-02-27T15:32:14.403Z,28.40
2019-02-27T15:34:45.968Z,29.10
2019-02-27T15:37:17.924Z,29.20
2019-02-27T15:39:48.150Z,29.70
2019-02-27T15:42:17.899Z,30.30
2019-02-27T15:44:48.010Z,31.00
2019-02-27T15:47:18.293Z,31.70
2019-02-27T15:49:48.769Z,31.50
2019-02-27T15:52:18.884Z,31.60
2019-02-27T15:54:51.186Z,31.90
2019-02-27T15:57:21.967Z,32.40
2019-02-27T15:59:52.677Z,32.30
2019-02-27T16:02:22.937Z,32.50
2019-02-27T16:04:55.490Z,32.50
2019-02-27T16:07:25.667Z,33.70
2019-02-27T16:09:56.046Z,34.30
2019-02-27T16:12:26.734Z,34.70
2019-02-27T16:14:57.518Z,35.10
2019-02-27T16:17:31.125Z,35.70
2019-02-27T16:20:00.136Z,35.70
2019-02-27T16:22:31.527Z,36.10
2019-02-27T16:25:01.473Z,36.60
2019-02-27T16:27:32.191Z,37.60
2019-02-27T16:30:04.996Z,37.60
2019-02-27T16:32:37.581Z,37.90
2019-02-27T16:35:08.860Z,37.90
2019-02-27T16:37:38.841Z,39.30
2019-02-27T16:40:11.537Z,41.40
2019-02-27T16:42:42.849Z,41.90
2019-02-27T16:45:16.868Z,42.50
2019-02-27T16:48:05.643Z,42.80
2019-02-27T16:50:35.651Z,43.60
2019-02-27T16:53:04.535Z,45.50
2019-02-27T16:55:36.878Z,46.20
2019-02-27T16:58:03.870Z,47.40
2019-02-27T17:00:32.771Z,48.10
2019-02-27T17:03:01.678Z,49.20
2019-02-27T17:05:31.888Z,50.20
2019-02-27T17:08:02.524Z,50.10
2019-02-27T17:10:31.582Z,52.40
2019-02-27T17:13:00.414Z,52.80
2019-02-27T17:15:34.521Z,52.90
2019-02-27T17:18:01.622Z,53.70
2019-02-27T17:20:31.987Z,54.20
2019-02-27T17:23:06.828Z,55.30
2019-02-27T17:25:31.975Z,55.80
2019-02-27T17:28:00.794Z,55.70
2019-02-27T17:30:36.617Z,55.20
2019-02-27T17:33:04.279Z,55.30
2019-02-27T17:35:32.036Z,56.80
2019-02-27T17:38:00.787Z,57.00
2019-02-27T17:40:29.656Z,56.80
2019-02-27T17:42:58.526Z,56.90
2019-02-27T17:45:27.433Z,57.10
2019-02-27T17:47:56.557Z,58.00
2019-02-27T17:50:31.243Z,58.30
2019-02-27T17:52:56.043Z,58.10
2019-02-27T17:55:24.847Z,57.80
2019-02-27T17:57:58.007Z,57.20
2019-02-27T18:00:30.348Z,57.30
2019-02-27T18:03:18.422Z,58.60
2019-02-27T18:05:47.204Z,58.50
2019-02-27T18:08:17.189Z,58.30
2019-02-27T18:10:46.202Z,58.80
2019-02-27T18:13:14.976Z,60.80
2019-02-27T18:15:43.824Z,61.10
2019-02-27T18:18:12.647Z,61.40
2019-02-27T18:20:41.399Z,61.90
2019-02-27T18:23:10.520Z,61.30
2019-02-27T18:25:42.117Z,61.60
2019-02-27T18:28:10.672Z,62.90
2019-02-27T18:30:39.507Z,63.60
2019-02-27T18:33:08.250Z,63.80
2019-02-27T18:35:37.198Z,65.70
2019-02-27T18:38:06.083Z,65.90
2019-02-27T18:40:35.004Z,67.10
2019-02-27T18:43:04.412Z,67.60
2019-02-27T18:45:33.201Z,66.90
2019-02-27T18:48:01.947Z,68.10
2019-02-27T18:50:30.776Z,68.80
2019-02-27T18:52:59.592Z,69.80
2019-02-27T18:55:30.921Z,69.80
2019-02-27T18:57:58.872Z,69.90
2019-02-27T19:00:27.699Z,70.10
2019-02-27T19:02:56.582Z,71.30
2019-02-27T19:05:25.404Z,71.50
2019-02-27T19:07:55.136Z,71.80
2019-02-27T19:10:25.170Z,72.10
2019-02-27T19:12:54.307Z,72.50
2019-02-27T19:15:23.538Z,73.30
2019-02-27T19:17:52.604Z,74.20
2019-02-27T19:20:25.030Z,75.10
2019-02-27T19:22:54.279Z,75.80
2019-02-27T19:25:23.213Z,76.10
2019-02-27T19:27:52.050Z,76.20
2019-02-27T19:30:21.079Z,76.00
2019-02-27T19:32:49.959Z,75.70
2019-02-27T19:35:21.711Z,76.30
2019-02-27T19:37:49.410Z,77.10
2019-02-27T19:40:19.139Z,77.80
2019-02-27T19:42:51.460Z,77.80
2019-02-27T19:45:20.733Z,77.90
2019-02-27T19:47:55.642Z,79.40
2019-02-27T19:50:23.558Z,79.60
2019-02-27T19:52:52.403Z,79.20
2019-02-27T19:55:26.241Z,79.00
2019-02-27T19:57:52.067Z,80.20
2019-02-27T20:00:22.904Z,80.40
2019-02-27T20:02:55.230Z,80.70
2019-02-27T20:05:22.987Z,80.70
2019-02-27T20:07:52.259Z,81.90
2019-02-27T20:10:21.469Z,81.00
2019-02-27T20:12:52.905Z,81.30
2019-02-27T20:15:23.336Z,82.60
2019-02-27T20:17:53.226Z,82.90
2019-02-27T20:20:22.735Z,83.50
2019-02-27T20:22:53.621Z,84.00
2019-02-27T20:25:23.000Z,83.70
2019-02-27T20:27:51.878Z,83.80
2019-02-27T20:30:21.141Z,84.40
2019-02-27T20:32:50.059Z,85.00
2019-02-27T20:35:20.690Z,86.60
2019-02-27T20:37:50.233Z,86.00
2019-02-27T20:40:19.156Z,86.10
2019-02-27T20:42:50.465Z,87.00
2019-02-27T20:45:19.554Z,87.00
2019-02-27T20:47:49.283Z,87.40
2019-02-27T20:50:34.216Z,87.40
2019-02-27T20:52:53.163Z,87.90
2019-02-27T20:55:22.099Z,88.70
2019-02-27T20:57:51.014Z,88.90
2019-02-27T21:00:20.514Z,89.20
2019-02-27T21:02:50.438Z,89.50
2019-02-27T21:05:21.057Z,90.00
2019-02-27T21:07:50.552Z,89.80
2019-02-27T21:10:21.154Z,90.30
2019-02-27T21:12:54.267Z,90.10
2019-02-27T21:15:22.268Z,90.00
2019-02-27T21:17:51.143Z,90.00
2019-02-27T21:20:20.048Z,90.60
2019-02-27T21:22:49.476Z,90.50
2019-02-27T21:25:18.316Z,90.50
2019-02-27T21:27:47.170Z,90.50
2019-02-27T21:30:18.749Z,90.70
2019-02-27T21:32:49.745Z,91.10
2019-02-27T21:35:18.814Z,91.10
2019-02-27T21:37:50.919Z,91.20
2019-02-27T21:40:20.005Z,91.30
2019-02-27T21:42:50.865Z,91.20
2019-02-27T21:45:19.951Z,91.20
2019-02-27T21:47:53.243Z,91.30
2019-02-27T21:50:22.982Z,91.00
2019-02-27T21:52:54.399Z,91.30
2019-02-27T21:55:23.394Z,91.40
2019-02-27T21:57:52.106Z,91.40
2019-02-27T22:00:23.619Z,91.60
2019-02-27T22:02:53.252Z,92.00
2019-02-27T22:05:22.616Z,91.80
2019-02-27T22:07:51.744Z,91.90
2019-02-27T22:10:21.366Z,91.90
2019-02-27T22:12:50.578Z,92.00
2019-02-27T22:15:23.156Z,92.10
2019-02-27T22:17:52.412Z,92.00
2019-02-27T22:20:21.354Z,92.40
2019-02-27T22:22:50.915Z,92.40
2019-02-27T22:25:19.745Z,92.60
2019-02-27T22:27:48.712Z,91.60
2019-02-27T22:30:18.471Z,91.80
2019-02-27T22:32:48.676Z,91.70
2019-02-27T22:35:18.020Z,91.70
2019-02-27T22:37:51.168Z,91.70
2019-02-27T22:40:17.746Z,91.80
2019-02-27T22:42:48.453Z,92.10
2019-02-27T22:45:19.166Z,92.20
2019-02-27T22:47:48.088Z,92.40
2019-02-27T22:50:18.221Z,92.60
2019-02-27T22:52:47.116Z,92.60
2019-02-27T22:55:15.986Z,92.50
2019-02-27T22:57:44.789Z,93.30
2019-02-27T23:00:44.069Z,93.10
2019-02-27T23:03:13.120Z,94.00
2019-02-27T23:05:41.971Z,94.00
2019-02-27T23:08:10.778Z,93.70
2019-02-27T23:10:39.616Z,93.60
2019-02-27T23:13:12.779Z,92.80
2019-02-27T23:15:40.636Z,93.20
2019-02-27T23:18:09.836Z,93.40
2019-02-27T23:20:39.420Z,93.60
2019-02-27T23:23:08.219Z,93.80
2019-02-27T23:25:37.040Z,93.80
2019-02-27T23:28:05.846Z,93.80
2019-02-27T23:30:34.665Z,93.90
2019-02-27T23:33:03.480Z,93.80
2019-02-27T23:35:32.223Z,94.00
2019-02-27T23:38:03.466Z,94.00
2019-02-27T23:40:31.403Z,93.60
2019-02-27T23:43:03.323Z,93.80
2019-02-27T23:45:30.877Z,93.90
2019-02-27T23:48:02.306Z,94.40
2019-02-27T23:50:31.072Z,94.60
2019-02-27T23:52:59.896Z,94.40
2019-02-27T23:55:28.643Z,94.20
2019-02-27T23:57:57.975Z,94.00
